Time;durP1;ratioP1;P1;durP2;ratioP2;P2;SDS_P1;SDS_P2;PMS_P1;PMS_P2;Temp;Humidity;BMP_temperature;BMP_pressure;BME280_temperature;BME280_humidity;BME280_pressure;Samples;Min_cycle;Max_cycle;Signal;HPM_P1;HPM_P2
2022/05/06 00:04:52;;;;;;;25.10;21.40;;;;;;;;;;4948870;28;20500;-75
2022/05/06 00:07:21;;;;;;;25.07;22.37;;;;;;;;;;5009346;22;20922;-74
2022/05/06 00:09:48;;;;;;;23.47;21.10;;;;;;;;;;5100226;28;20794;-74
2022/05/06 00:12:18;;;;;;;26.70;21.37;;;;;;;;;;5090259;28;20455;-75
2022/05/06 00:14:45;;;;;;;25.93;21.97;;;;;;;;;;5090136;28;20479;-75
2022/05/06 00:17:12;;;;;;;25.37;21.90;;;;;;;;;;5079450;28;20542;-75
2022/05/06 00:19:39;;;;;;;24.77;21.20;;;;;;;;;;5069222;28;20479;-75
2022/05/06 00:22:06;;;;;;;25.87;23.10;;;;;;;;;;5067876;28;20455;-76
2022/05/06 00:24:35;;;;;;;25.70;22.80;;;;;;;;;;5067476;28;20445;-75
2022/05/06 00:27:02;;;;;;;25.47;23.00;;;;;;;;;;5069502;28;20480;-76
2022/05/06 00:29:29;;;;;;;30.40;23.37;;;;;;;;;;5069644;28;20452;-77
2022/05/06 00:31:56;;;;;;;28.33;22.67;;;;;;;;;;5069137;28;20475;-77
2022/05/06 00:34:23;;;;;;;28.50;25.60;;;;;;;;;;5057849;28;20538;-76
2022/05/06 00:36:50;;;;;;;28.60;25.17;;;;;;;;;;5063119;28;20211;-76
2022/05/06 00:39:18;;;;;;;29.03;24.23;;;;;;;;;;5067677;28;20445;-77
2022/05/06 00:41:46;;;;;;;27.20;24.30;;;;;;;;;;5064779;28;20448;-75
2022/05/06 00:44:13;;;;;;;24.60;22.00;;;;;;;;;;5068671;28;20444;-75
2022/05/06 00:46:40;;;;;;;26.63;23.37;;;;;;;;;;5069190;28;20487;-75
2022/05/06 00:49:09;;;;;;;27.60;24.80;;;;;;;;;;5068962;28;20444;-75
2022/05/06 00:51:36;;;;;;;26.13;22.87;;;;;;;;;;5067091;28;20445;-75
2022/05/06 00:54:03;;;;;;;26.10;23.40;;;;;;;;;;5068484;28;20559;-77
2022/05/06 00:56:30;;;;;;;26.60;23.03;;;;;;;;;;5069413;28;20467;-75
2022/05/06 00:58:59;;;;;;;25.93;23.23;;;;;;;;;;5072878;28;20440;-75
2022/05/06 01:01:26;;;;;;;25.80;23.10;;;;;;;;;;5072849;28;20448;-76
2022/05/06 01:03:54;;;;;;;32.10;24.50;;;;;;;;;;5057624;28;20450;-76
2022/05/06 01:06:21;;;;;;;27.83;24.40;;;;;;;;;;5055768;28;20475;-76
2022/05/06 01:08:48;;;;;;;28.00;23.30;;;;;;;;;;5072625;28;20919;-76
2022/05/06 01:11:15;;;;;;;28.53;23.20;;;;;;;;;;5073119;28;20444;-75
2022/05/06 01:13:43;;;;;;;27.10;24.20;;;;;;;;;;5072021;28;20999;-75
2022/05/06 01:16:11;;;;;;;27.30;24.40;;;;;;;;;;5072475;28;20453;-76
2022/05/06 01:18:38;;;;;;;27.30;23.53;;;;;;;;;;5072559;28;20441;-77
2022/05/06 01:21:06;;;;;;;29.13;24.43;;;;;;;;;;5072652;28;20459;-76
2022/05/06 01:23:34;;;;;;;28.47;22.73;;;;;;;;;;5070372;28;20449;-75
2022/05/06 01:26:01;;;;;;;29.30;24.67;;;;;;;;;;5061928;28;20438;-75
2022/05/06 01:28:29;;;;;;;28.27;25.20;;;;;;;;;;5063159;28;20847;-77
2022/05/06 01:31:00;;;;;;;27.30;24.20;;;;;;;;;;5072064;28;20471;-77
2022/05/06 01:33:28;;;;;;;31.50;24.23;;;;;;;;;;5071400;28;20473;-76
2022/05/06 01:35:57;;;;;;;30.57;27.27;;;;;;;;;;5072147;28;20444;-75
2022/05/06 01:38:27;;;;;;;29.93;24.33;;;;;;;;;;5071986;28;20441;-76
2022/05/06 01:40:56;;;;;;;28.97;24.03;;;;;;;;;;5071917;28;20889;-77
2022/05/06 01:43:25;;;;;;;28.60;24.60;;;;;;;;;;5071704;28;20456;-76
2022/05/06 01:45:54;;;;;;;28.60;25.10;;;;;;;;;;5072248;28;20445;-75
2022/05/06 01:48:22;;;;;;;30.13;24.97;;;;;;;;;;5072027;28;20539;-77
2022/05/06 01:50:50;;;;;;;29.63;26.52;;;;;;;;;;5071086;28;20448;-75
2022/05/06 01:53:17;;;;;;;27.67;24.77;;;;;;;;;;5071663;28;20198;-76
2022/05/06 01:55:45;;;;;;;26.90;24.00;;;;;;;;;;5072086;28;20452;-75
2022/05/06 02:06:09;;;;;;;26.23;23.10;;;;;;;;;;5073617;23;20557;-75
2022/05/06 02:08:36;;;;;;;26.50;22.47;;;;;;;;;;5099595;28;20501;-75
2022/05/06 02:11:03;;;;;;;26.50;23.57;;;;;;;;;;5091893;28;20443;-76
2022/05/06 02:13:31;;;;;;;32.47;23.90;;;;;;;;;;5091710;28;20507;-76
2022/05/06 02:15:58;;;;;;;27.87;23.93;;;;;;;;;;5080908;28;20543;-75
2022/05/06 02:18:26;;;;;;;28.63;23.13;;;;;;;;;;5080656;28;20503;-75
2022/05/06 02:20:53;;;;;;;25.07;22.43;;;;;;;;;;5091199;28;20439;-76
2022/05/06 02:23:22;;;;;;;28.73;23.63;;;;;;;;;;5091101;28;20450;-74
2022/05/06 02:25:50;;;;;;;28.63;22.47;;;;;;;;;;5091374;28;20471;-75
2022/05/06 02:28:17;;;;;;;27.93;23.80;;;;;;;;;;5091502;28;20509;-75
2022/05/06 02:33:31;;;;;;;26.13;22.13;;;;;;;;;;5090792;28;20490;-76
2022/05/06 02:35:58;;;;;;;26.17;23.30;;;;;;;;;;5092283;28;20535;-75
2022/05/06 02:38:27;;;;;;;28.85;25.13;;;;;;;;;;5092295;28;20472;-74
2022/05/06 02:40:55;;;;;;;26.53;23.70;;;;;;;;;;5093354;28;20201;-75
2022/05/06 02:43:22;;;;;;;30.37;22.20;;;;;;;;;;5093055;28;20505;-75
2022/05/06 02:45:49;;;;;;;28.40;23.10;;;;;;;;;;5092325;28;20931;-76
2022/05/06 02:48:16;;;;;;;25.67;22.83;;;;;;;;;;5090615;28;20490;-76
2022/05/06 02:50:43;;;;;;;25.30;22.70;;;;;;;;;;5090852;28;20842;-75
2022/05/06 02:53:10;;;;;;;26.00;23.20;;;;;;;;;;5090858;28;20893;-75
2022/05/06 02:55:39;;;;;;;23.63;21.10;;;;;;;;;;5090973;28;20475;-75
2022/05/06 02:58:06;;;;;;;31.80;26.23;;;;;;;;;;5090624;28;20460;-74
2022/05/06 03:00:33;;;;;;;24.77;22.20;;;;;;;;;;5090652;28;20444;-74
2022/05/06 03:03:00;;;;;;;24.37;20.53;;;;;;;;;;5090251;28;20593;-77
2022/05/06 03:05:27;;;;;;;26.50;23.70;;;;;;;;;;5089792;28;20450;-75
2022/05/06 03:07:54;;;;;;;25.53;22.83;;;;;;;;;;5090348;28;20221;-75
2022/05/06 03:10:22;;;;;;;27.60;24.90;;;;;;;;;;5090040;28;20439;-75
2022/05/06 03:12:50;;;;;;;24.10;21.50;;;;;;;;;;5091102;28;20201;-75
2022/05/06 03:15:17;;;;;;;25.00;22.43;;;;;;;;;;5090860;28;20479;-76
2022/05/06 03:17:44;;;;;;;24.67;21.40;;;;;;;;;;5090269;28;20501;-75
2022/05/06 03:20:11;;;;;;;27.50;24.60;;;;;;;;;;5089848;28;20444;-75
2022/05/06 03:22:41;;;;;;;26.05;23.17;;;;;;;;;;5091960;28;20429;-75
2022/05/06 03:25:08;;;;;;;22.60;20.30;;;;;;;;;;5091318;28;20232;-76
2022/05/06 03:30:21;;;;;;;28.33;19.30;;;;;;;;;;5090642;28;21106;-75
2022/05/06 03:32:49;;;;;;;25.90;22.70;;;;;;;;;;5090218;28;20927;-76
2022/05/06 03:35:16;;;;;;;25.83;22.07;;;;;;;;;;5090261;28;20485;-74
2022/05/06 03:37:44;;;;;;;24.20;21.70;;;;;;;;;;5089179;28;20970;-75
2022/05/06 03:40:11;;;;;;;22.50;20.20;;;;;;;;;;5089429;28;20457;-76
2022/05/06 03:42:38;;;;;;;23.48;20.65;;;;;;;;;;5089718;28;20433;-76
2022/05/06 03:45:07;;;;;;;21.88;19.67;;;;;;;;;;5090101;28;20449;-76
2022/05/06 03:47:35;;;;;;;22.30;20.10;;;;;;;;;;5086995;28;20441;-75
2022/05/06 03:52:49;;;;;;;20.63;18.63;;;;;;;;;;5080371;28;20438;-77
2022/05/06 03:55:16;;;;;;;22.27;20.07;;;;;;;;;;5089650;28;20531;-76
2022/05/06 03:57:43;;;;;;;23.20;20.67;;;;;;;;;;5089029;28;20494;-74
2022/05/06 04:00:11;;;;;;;22.03;19.70;;;;;;;;;;5090472;28;20193;-77
2022/05/06 04:02:39;;;;;;;21.65;19.50;;;;;;;;;;5081701;28;20440;-75
2022/05/06 04:05:06;;;;;;;22.05;19.65;;;;;;;;;;5090247;28;20436;-74
2022/05/06 04:07:33;;;;;;;22.38;20.13;;;;;;;;;;5075502;28;20457;-75
2022/05/06 04:10:01;;;;;;;21.83;19.73;;;;;;;;;;5069096;28;20442;-76
2022/05/06 04:12:28;;;;;;;23.05;20.88;;;;;;;;;;5068507;28;20442;-76
2022/05/06 04:14:55;;;;;;;23.40;19.67;;;;;;;;;;5069500;28;20218;-77
2022/05/06 04:17:22;;;;;;;23.30;21.10;;;;;;;;;;5068622;28;20438;-76
2022/05/06 04:25:21;;;;;;;21.37;19.33;;;;;;;;;;5070751;28;20420;-75
2022/05/06 04:27:48;;;;;;;22.50;20.07;;;;;;;;;;5072015;28;20472;-75
2022/05/06 04:30:15;;;;;;;21.97;19.80;;;;;;;;;;5070475;28;21220;-76
2022/05/06 04:32:42;;;;;;;21.37;19.23;;;;;;;;;;5071646;28;20449;-76
2022/05/06 04:35:11;;;;;;;22.10;20.03;;;;;;;;;;5073286;28;20472;-76
2022/05/06 04:37:38;;;;;;;23.40;20.90;;;;;;;;;;5072879;28;20445;-75
2022/05/06 04:40:06;;;;;;;23.33;20.90;;;;;;;;;;5079490;28;20202;-76
2022/05/06 04:42:33;;;;;;;23.15;20.20;;;;;;;;;;5086605;28;20807;-77
2022/05/06 04:45:00;;;;;;;23.07;20.20;;;;;;;;;;5092878;28;20205;-75
2022/05/06 04:47:27;;;;;;;22.00;19.70;;;;;;;;;;5093160;28;20964;-76
2022/05/06 04:49:54;;;;;;;23.52;21.15;;;;;;;;;;5093051;28;20436;-75
2022/05/06 04:52:22;;;;;;;23.93;20.83;;;;;;;;;;5093084;28;20202;-74
2022/05/06 04:54:49;;;;;;;24.60;21.87;;;;;;;;;;5092847;28;21088;-76
2022/05/06 04:57:16;;;;;;;22.47;20.03;;;;;;;;;;5092816;28;20451;-76
2022/05/06 04:59:47;;;;;;;21.50;19.37;;;;;;;;;;5093002;28;20440;-76
2022/05/06 05:02:14;;;;;;;21.37;18.50;;;;;;;;;;5093068;28;20440;-76
2022/05/06 05:04:41;;;;;;;19.50;17.63;;;;;;;;;;5088976;28;20449;-77
2022/05/06 05:07:08;;;;;;;20.30;18.40;;;;;;;;;;5122781;22;20588;-74
2022/05/06 05:09:37;;;;;;;21.53;19.33;;;;;;;;;;5072021;28;20441;-76
2022/05/06 05:12:04;;;;;;;20.27;18.37;;;;;;;;;;5070405;28;20444;-76
2022/05/06 05:14:31;;;;;;;20.30;18.30;;;;;;;;;;5064652;28;20514;-77
2022/05/06 05:16:58;;;;;;;23.40;21.20;;;;;;;;;;5064536;28;20447;-74
2022/05/06 05:19:25;;;;;;;22.43;20.10;;;;;;;;;;5052372;28;20298;-76
2022/05/06 05:21:53;;;;;;;23.70;21.40;;;;;;;;;;5051446;28;20440;-76
2022/05/06 05:24:21;;;;;;;22.23;19.93;;;;;;;;;;5051770;28;20199;-78
2022/05/06 05:32:42;;;;;;;23.67;21.38;;;;;;;;;;5054659;28;20878;-75
2022/05/06 05:35:10;;;;;;;22.80;20.40;;;;;;;;;;5071032;28;20461;-76
2022/05/06 05:37:37;;;;;;;20.70;18.60;;;;;;;;;;5071791;28;20475;-76
2022/05/06 05:40:05;;;;;;;21.40;19.30;;;;;;;;;;5072967;28;20451;-75
2022/05/06 05:42:32;;;;;;;23.03;20.93;;;;;;;;;;5070389;28;20917;-74
2022/05/06 05:50:30;;;;;;;21.95;19.85;;;;;;;;;;5071032;28;20449;-75
2022/05/06 05:52:58;;;;;;;23.90;19.83;;;;;;;;;;5071364;28;20198;-75
2022/05/06 05:55:25;;;;;;;20.17;18.10;;;;;;;;;;5073351;28;20476;-75
2022/05/06 05:57:52;;;;;;;24.53;22.13;;;;;;;;;;5074223;28;20906;-77
2022/05/06 06:00:19;;;;;;;22.60;20.38;;;;;;;;;;5072739;28;20450;-75
2022/05/06 06:02:47;;;;;;;23.00;20.63;;;;;;;;;;5072762;28;20447;-75
2022/05/06 06:05:14;;;;;;;23.60;21.20;;;;;;;;;;5070227;28;20434;-75
2022/05/06 06:07:41;;;;;;;23.27;20.98;;;;;;;;;;5070644;28;20446;-75
2022/05/06 06:10:09;;;;;;;25.77;20.50;;;;;;;;;;5071287;28;20202;-75
2022/05/06 06:12:36;;;;;;;22.48;20.27;;;;;;;;;;5070035;28;20441;-75
2022/05/06 06:15:03;;;;;;;22.42;20.15;;;;;;;;;;5071362;28;20450;-74
2022/05/06 06:17:30;;;;;;;20.33;18.40;;;;;;;;;;5071312;28;20194;-74
2022/05/06 06:19:59;;;;;;;22.90;20.80;;;;;;;;;;5070379;28;20517;-76
2022/05/06 06:22:26;;;;;;;23.23;21.02;;;;;;;;;;5070488;28;20491;-76
2022/05/06 06:24:53;;;;;;;21.67;19.60;;;;;;;;;;5071825;28;20199;-76
2022/05/06 06:27:20;;;;;;;23.85;21.65;;;;;;;;;;5070647;28;20455;-76
2022/05/06 06:29:49;;;;;;;23.30;21.15;;;;;;;;;;5071270;28;20434;-76
2022/05/06 06:32:17;;;;;;;22.23;20.13;;;;;;;;;;5070350;28;20438;-75
2022/05/06 06:34:44;;;;;;;23.75;21.55;;;;;;;;;;5070242;28;20957;-76
2022/05/06 06:37:13;;;;;;;20.20;18.23;;;;;;;;;;5070059;28;20710;-76
2022/05/06 06:39:40;;;;;;;20.38;18.38;;;;;;;;;;5067566;28;20446;-74
2022/05/06 06:42:08;;;;;;;21.20;19.30;;;;;;;;;;5066621;28;20450;-75
2022/05/06 06:44:35;;;;;;;23.60;19.73;;;;;;;;;;5070911;28;20661;-75
2022/05/06 06:47:02;;;;;;;21.55;19.40;;;;;;;;;;5065621;28;20442;-77
2022/05/06 06:49:29;;;;;;;20.03;17.80;;;;;;;;;;5070843;28;20201;-76
2022/05/06 06:51:56;;;;;;;19.63;17.80;;;;;;;;;;5071145;28;20448;-76
2022/05/06 06:54:24;;;;;;;19.03;17.00;;;;;;;;;;5070137;28;20475;-75
2022/05/06 06:56:51;;;;;;;19.95;17.95;;;;;;;;;;5070045;28;20827;-75
2022/05/06 06:59:18;;;;;;;20.13;18.07;;;;;;;;;;5070795;28;20202;-77
2022/05/06 07:01:45;;;;;;;20.20;18.10;;;;;;;;;;5070347;28;20440;-76
2022/05/06 07:04:13;;;;;;;19.93;18.03;;;;;;;;;;5070902;28;20456;-78
2022/05/06 07:12:11;;;;;;;20.97;17.80;;;;;;;;;;5070622;28;20503;-76
2022/05/06 07:14:38;;;;;;;20.00;18.13;;;;;;;;;;5070132;28;20436;-75
2022/05/06 07:17:06;;;;;;;20.10;18.20;;;;;;;;;;5068649;28;20475;-78
2022/05/06 07:19:33;;;;;;;20.10;18.10;;;;;;;;;;5070553;28;20445;-76
2022/05/06 07:22:00;;;;;;;21.80;19.80;;;;;;;;;;5070025;28;20465;-76
2022/05/06 07:24:30;;;;;;;21.27;19.30;;;;;;;;;;5069927;28;20457;-76
2022/05/06 07:26:57;;;;;;;18.57;16.80;;;;;;;;;;5064751;28;20301;-76
2022/05/06 07:29:24;;;;;;;19.80;17.90;;;;;;;;;;5069943;28;20445;-75
2022/05/06 07:31:51;;;;;;;19.37;17.60;;;;;;;;;;5070317;28;20480;-75
2022/05/06 07:34:18;;;;;;;16.03;14.40;;;;;;;;;;5070324;28;20971;-76
2022/05/06 07:36:45;;;;;;;15.23;13.83;;;;;;;;;;5070124;28;21031;-77
2022/05/06 07:39:13;;;;;;;15.80;14.30;;;;;;;;;;5070929;28;20463;-76
2022/05/06 07:41:41;;;;;;;16.60;14.90;;;;;;;;;;5070195;28;20444;-76
2022/05/06 07:44:09;;;;;;;14.47;13.00;;;;;;;;;;5069786;28;20817;-76
2022/05/06 07:46:36;;;;;;;14.40;13.00;;;;;;;;;;5070246;28;20452;-76
2022/05/06 07:49:04;;;;;;;14.57;13.37;;;;;;;;;;5070719;28;20448;-77
2022/05/06 07:51:31;;;;;;;15.30;13.80;;;;;;;;;;5070072;28;20449;-76
2022/05/06 07:53:58;;;;;;;15.10;13.70;;;;;;;;;;5070316;28;20448;-77
2022/05/06 07:56:26;;;;;;;15.53;14.00;;;;;;;;;;5070127;28;20496;-76
2022/05/06 07:58:55;;;;;;;15.10;13.57;;;;;;;;;;5069847;28;20853;-76
2022/05/06 08:04:32;;;;;;;14.53;12.80;;;;;;;;;;5070250;28;20441;-76
2022/05/06 08:06:55;;;;;;;15.60;13.33;;;;;;;;;;5064213;28;20598;-76
2022/05/06 08:09:22;;;;;;;14.50;13.10;;;;;;;;;;5068846;28;20454;-77
2022/05/06 08:11:49;;;;;;;15.83;13.57;;;;;;;;;;5074428;28;20452;-76
2022/05/06 08:14:18;;;;;;;15.13;13.63;;;;;;;;;;5069527;28;20993;-75
2022/05/06 08:16:46;;;;;;;14.80;13.30;;;;;;;;;;5061783;28;20583;-76
2022/05/06 08:19:14;;;;;;;12.50;11.30;;;;;;;;;;5065300;28;20459;-76
2022/05/06 08:21:41;;;;;;;14.83;11.90;;;;;;;;;;5073736;28;20466;-77
2022/05/06 08:24:09;;;;;;;15.43;11.37;;;;;;;;;;5073870;28;20451;-77
2022/05/06 08:26:36;;;;;;;14.10;12.90;;;;;;;;;;5073989;28;20491;-76
2022/05/06 08:29:03;;;;;;;13.57;12.27;;;;;;;;;;5073845;28;20487;-76
2022/05/06 08:31:37;;;;;;;13.03;11.93;;;;;;;;;;5073982;28;20441;-76
2022/05/06 08:34:04;;;;;;;13.10;11.80;;;;;;;;;;5073921;28;20421;-76
2022/05/06 08:36:31;;;;;;;13.30;12.20;;;;;;;;;;5073661;28;20492;-75
2022/05/06 08:38:58;;;;;;;14.50;13.10;;;;;;;;;;5073870;28;20964;-75
2022/05/06 08:41:26;;;;;;;12.90;11.70;;;;;;;;;;5074071;28;20448;-74
2022/05/06 08:43:53;;;;;;;16.23;12.97;;;;;;;;;;5073580;28;20461;-75
2022/05/06 08:51:53;;;;;;;12.60;11.30;;;;;;;;;;5073039;28;20432;-76
2022/05/06 08:54:21;;;;;;;12.20;11.10;;;;;;;;;;5060032;28;20450;-75
2022/05/06 08:56:49;;;;;;;13.17;11.40;;;;;;;;;;5073126;28;20489;-77
2022/05/06 08:59:16;;;;;;;12.17;10.97;;;;;;;;;;5073938;28;20936;-75
2022/05/06 09:01:44;;;;;;;12.20;11.00;;;;;;;;;;5073423;28;20468;-76
2022/05/06 09:04:13;;;;;;;11.33;10.13;;;;;;;;;;5073589;28;20531;-77
2022/05/06 09:06:40;;;;;;;11.00;9.90;;;;;;;;;;5073266;28;20882;-75
2022/05/06 09:09:07;;;;;;;11.20;10.10;;;;;;;;;;5073583;28;20457;-76
2022/05/06 09:14:20;;;;;;;13.60;12.30;;;;;;;;;;5072334;28;20599;-75
2022/05/06 09:16:47;;;;;;;11.10;10.00;;;;;;;;;;5072485;28;20484;-77
2022/05/06 09:19:17;;;;;;;15.60;10.73;;;;;;;;;;5073406;28;20501;-76
2022/05/06 09:22:04;;;;;;;11.40;9.87;;;;;;;;;;5074355;28;20516;-77
2022/05/06 09:24:31;;;;;;;11.43;10.53;;;;;;;;;;5070463;28;20851;-77
2022/05/06 09:27:00;;;;;;;10.33;9.33;;;;;;;;;;5072081;28;20484;-76
2022/05/06 09:29:31;;;;;;;10.20;9.10;;;;;;;;;;5075661;28;21035;-75
2022/05/06 09:32:13;;;;;;;10.60;9.70;;;;;;;;;;5072045;28;20453;-76
2022/05/06 09:34:41;;;;;;;13.80;11.33;;;;;;;;;;5064982;28;20531;-76
2022/05/06 09:37:08;;;;;;;11.50;10.60;;;;;;;;;;5065992;28;21031;-75
2022/05/06 09:39:38;;;;;;;12.17;10.97;;;;;;;;;;5071323;28;20445;-76
2022/05/06 09:42:06;;;;;;;11.27;10.17;;;;;;;;;;5071918;28;20934;-76
2022/05/06 09:44:33;;;;;;;11.73;10.77;;;;;;;;;;5067225;28;20445;-75
2022/05/06 09:47:11;;;;;;;11.67;10.40;;;;;;;;;;5072201;28;20488;-78
2022/05/06 09:49:39;;;;;;;10.60;9.67;;;;;;;;;;5052590;28;20438;-76
2022/05/06 09:52:11;;;;;;;13.40;10.00;;;;;;;;;;5052510;28;20448;-76
2022/05/06 09:54:38;;;;;;;10.33;9.33;;;;;;;;;;5052142;28;20796;-77
2022/05/06 09:57:06;;;;;;;11.07;9.97;;;;;;;;;;5052223;28;20539;-77
2022/05/06 09:59:33;;;;;;;10.17;9.27;;;;;;;;;;5052599;28;20453;-77
2022/05/06 10:02:00;;;;;;;9.23;8.43;;;;;;;;;;5051739;28;20586;-76
2022/05/06 10:04:27;;;;;;;11.63;10.00;;;;;;;;;;5052096;28;20905;-77
2022/05/06 10:06:57;;;;;;;10.80;9.80;;;;;;;;;;5051934;28;20945;-78
2022/05/06 10:09:25;;;;;;;11.30;9.10;;;;;;;;;;5057020;28;20452;-76
2022/05/06 10:11:54;;;;;;;10.27;9.27;;;;;;;;;;5071710;28;21115;-77
2022/05/06 10:14:21;;;;;;;10.67;9.77;;;;;;;;;;5071512;28;20486;-76
2022/05/06 10:16:49;;;;;;;12.70;10.30;;;;;;;;;;5071990;28;20838;-75
2022/05/06 10:19:26;;;;;;;14.03;10.20;;;;;;;;;;5072067;28;20445;-74
2022/05/06 10:21:53;;;;;;;11.17;10.03;;;;;;;;;;5071872;28;20472;-76
2022/05/06 10:24:20;;;;;;;10.10;9.20;;;;;;;;;;5071520;28;20471;-75
2022/05/06 10:26:50;;;;;;;13.17;10.07;;;;;;;;;;5072333;28;20491;-76
2022/05/06 10:32:26;;;;;;;10.27;8.87;;;;;;;;;;5073641;28;20504;-74
2022/05/06 10:35:12;;;;;;;10.10;9.07;;;;;;;;;;5073496;28;20548;-76
2022/05/06 10:37:40;;;;;;;9.40;8.60;;;;;;;;;;5072786;28;21058;-75
2022/05/06 10:40:26;;;;;;;9.07;8.10;;;;;;;;;;5073113;28;20445;-76
2022/05/06 10:42:54;;;;;;;8.23;7.63;;;;;;;;;;5072701;28;20448;-77
2022/05/06 10:45:23;;;;;;;8.53;7.80;;;;;;;;;;5073601;28;20543;-75
2022/05/06 10:47:51;;;;;;;8.67;7.77;;;;;;;;;;5072788;28;20510;-74
2022/05/06 10:50:20;;;;;;;7.83;7.23;;;;;;;;;;5073543;28;20502;-75
2022/05/06 10:52:48;;;;;;;8.53;7.40;;;;;;;;;;5073596;28;20449;-76
2022/05/06 10:55:16;;;;;;;8.80;8.10;;;;;;;;;;5074089;28;20455;-76
2022/05/06 10:57:48;;;;;;;8.37;7.67;;;;;;;;;;5071367;28;20484;-75
2022/05/06 11:00:17;;;;;;;8.00;7.20;;;;;;;;;;5071165;28;20451;-77
2022/05/06 11:02:44;;;;;;;8.33;7.63;;;;;;;;;;5070768;28;20457;-74
2022/05/06 11:05:12;;;;;;;7.03;6.33;;;;;;;;;;5070936;28;20455;-76
2022/05/06 11:07:41;;;;;;;7.10;6.40;;;;;;;;;;5070847;28;20453;-76
2022/05/06 11:10:09;;;;;;;7.23;6.53;;;;;;;;;;5071242;28;20449;-76
2022/05/06 11:12:37;;;;;;;6.90;6.30;;;;;;;;;;5069849;28;20480;-77
2022/05/06 11:15:06;;;;;;;6.27;5.77;;;;;;;;;;5070646;28;20997;-76
2022/05/06 11:17:34;;;;;;;6.10;5.67;;;;;;;;;;5070438;28;21002;-75
2022/05/06 11:20:01;;;;;;;6.40;5.73;;;;;;;;;;5069913;28;20437;-76
2022/05/06 11:22:28;;;;;;;6.73;6.23;;;;;;;;;;5070437;28;20440;-76
2022/05/06 11:24:58;;;;;;;7.60;6.90;;;;;;;;;;5072482;28;20444;-76
2022/05/06 11:27:26;;;;;;;6.97;6.37;;;;;;;;;;5072345;28;20475;-74
2022/05/06 11:29:55;;;;;;;7.93;6.50;;;;;;;;;;5073640;28;20458;-76
2022/05/06 11:32:22;;;;;;;6.67;6.07;;;;;;;;;;5072043;28;20887;-77
2022/05/06 11:34:55;;;;;;;6.43;5.60;;;;;;;;;;5074817;28;20460;-75
2022/05/06 11:37:22;;;;;;;6.90;6.20;;;;;;;;;;5072100;28;20484;-76
2022/05/06 11:39:50;;;;;;;9.97;7.60;;;;;;;;;;5070793;28;20451;-75
2022/05/06 11:42:23;;;;;;;9.43;6.10;;;;;;;;;;5070164;28;20441;-74
2022/05/06 11:47:42;;;;;;;6.40;5.80;;;;;;;;;;5070916;28;20522;-75
2022/05/06 11:50:11;;;;;;;7.73;6.30;;;;;;;;;;5070623;28;20471;-76
2022/05/06 11:52:38;;;;;;;7.13;6.47;;;;;;;;;;5070376;28;20526;-76
2022/05/06 11:55:06;;;;;;;7.20;6.60;;;;;;;;;;5070578;28;20447;-76
2022/05/06 11:57:35;;;;;;;8.43;7.63;;;;;;;;;;5070269;28;20487;-76
2022/05/06 12:00:03;;;;;;;6.57;5.90;;;;;;;;;;5070335;28;20856;-76
2022/05/06 12:02:30;;;;;;;6.67;6.07;;;;;;;;;;5069702;28;20491;-77
2022/05/06 12:04:57;;;;;;;7.03;6.47;;;;;;;;;;5070428;28;20444;-75
2022/05/06 12:07:40;;;;;;;7.07;5.97;;;;;;;;;;5070233;28;20495;-76
2022/05/06 12:10:08;;;;;;;6.93;6.20;;;;;;;;;;5070085;28;20494;-75
2022/05/06 12:12:35;;;;;;;7.13;6.43;;;;;;;;;;5069800;28;20936;-76
2022/05/06 12:15:10;;;;;;;6.97;6.30;;;;;;;;;;5070511;28;20444;-77
2022/05/06 12:17:37;;;;;;;7.53;6.33;;;;;;;;;;5069939;28;20471;-76
2022/05/06 12:20:05;;;;;;;6.53;5.90;;;;;;;;;;5070494;28;20441;-75
2022/05/06 12:22:33;;;;;;;6.87;5.40;;;;;;;;;;5070142;28;20445;-76
2022/05/06 12:25:00;;;;;;;8.97;6.40;;;;;;;;;;5069978;28;20467;-75
2022/05/06 12:27:28;;;;;;;7.23;6.63;;;;;;;;;;5069847;28;20825;-77
2022/05/06 12:29:57;;;;;;;6.17;5.63;;;;;;;;;;5069869;28;20448;-75
2022/05/06 12:32:24;;;;;;;6.87;6.27;;;;;;;;;;5070319;28;20509;-78
2022/05/06 12:35:02;;;;;;;6.37;5.53;;;;;;;;;;5069767;28;20445;-76
2022/05/06 12:37:29;;;;;;;6.53;5.93;;;;;;;;;;5070233;28;20482;-77
2022/05/06 12:40:00;;;;;;;9.70;6.57;;;;;;;;;;5069702;28;20529;-75
2022/05/06 12:42:27;;;;;;;8.10;6.13;;;;;;;;;;5069773;28;20459;-75
2022/05/06 12:44:54;;;;;;;6.50;6.03;;;;;;;;;;5069577;28;20440;-76
2022/05/06 12:50:09;;;;;;;6.17;5.67;;;;;;;;;;5069427;28;20494;-75
2022/05/06 12:52:36;;;;;;;7.10;6.27;;;;;;;;;;5069076;28;20471;-76
2022/05/06 12:55:05;;;;;;;6.37;5.70;;;;;;;;;;5072582;28;20452;-75
2022/05/06 12:57:32;;;;;;;10.30;5.63;;;;;;;;;;5072749;28;20568;-77
2022/05/06 12:59:59;;;;;;;6.63;6.00;;;;;;;;;;5072504;28;20892;-75
2022/05/06 13:02:27;;;;;;;6.63;6.03;;;;;;;;;;5072689;28;20453;-76
2022/05/06 13:04:54;;;;;;;7.60;6.07;;;;;;;;;;5072570;28;20445;-76
2022/05/06 13:07:21;;;;;;;6.40;5.90;;;;;;;;;;5072593;28;20467;-76
2022/05/06 13:09:48;;;;;;;7.53;6.73;;;;;;;;;;5072697;28;20444;-77
2022/05/06 13:12:18;;;;;;;7.07;6.33;;;;;;;;;;5073074;28;20499;-76
2022/05/06 13:14:45;;;;;;;7.37;6.77;;;;;;;;;;5072456;28;20441;-76
2022/05/06 13:17:12;;;;;;;7.50;6.97;;;;;;;;;;5072452;28;20488;-76
2022/05/06 13:19:39;;;;;;;9.13;6.00;;;;;;;;;;5072898;28;20437;-77
2022/05/06 13:22:06;;;;;;;6.53;6.03;;;;;;;;;;5072783;28;20447;-76
2022/05/06 13:24:33;;;;;;;6.53;5.93;;;;;;;;;;5072551;28;20480;-75
2022/05/06 13:27:00;;;;;;;7.00;6.30;;;;;;;;;;5072576;28;20460;-77
2022/05/06 13:29:28;;;;;;;6.50;5.90;;;;;;;;;;5072274;28;20452;-77
2022/05/06 13:31:55;;;;;;;6.37;5.77;;;;;;;;;;5072223;28;20858;-76
2022/05/06 13:34:23;;;;;;;6.03;5.53;;;;;;;;;;5071871;28;20479;-75
2022/05/06 13:36:50;;;;;;;7.60;5.57;;;;;;;;;;5071954;28;20855;-77
2022/05/06 13:39:17;;;;;;;6.27;5.77;;;;;;;;;;5072100;28;20429;-76
2022/05/06 13:41:44;;;;;;;5.60;5.20;;;;;;;;;;5072384;28;20448;-76
2022/05/06 13:44:11;;;;;;;5.97;5.47;;;;;;;;;;5071848;28;20445;-75
2022/05/06 13:46:39;;;;;;;8.30;5.90;;;;;;;;;;5071921;28;20482;-76
2022/05/06 13:49:07;;;;;;;5.60;5.17;;;;;;;;;;5071706;28;20448;-76
2022/05/06 13:51:34;;;;;;;5.80;5.30;;;;;;;;;;5072042;28;20449;-75
2022/05/06 13:54:02;;;;;;;6.70;6.10;;;;;;;;;;5071463;28;20908;-76
2022/05/06 13:59:15;;;;;;;6.73;6.20;;;;;;;;;;5071521;28;20523;-76
2022/05/06 14:01:44;;;;;;;7.70;6.37;;;;;;;;;;5071533;28;20480;-75
2022/05/06 14:04:11;;;;;;;6.30;5.73;;;;;;;;;;5070760;28;20448;-76
2022/05/06 14:06:40;;;;;;;6.10;5.70;;;;;;;;;;5070775;28;20551;-75
2022/05/06 14:09:07;;;;;;;6.70;6.07;;;;;;;;;;5071377;28;20535;-76
2022/05/06 14:11:34;;;;;;;7.63;6.50;;;;;;;;;;5071198;28;20436;-77
2022/05/06 14:14:01;;;;;;;6.67;6.07;;;;;;;;;;5070717;28;20806;-76
2022/05/06 14:16:28;;;;;;;5.90;5.50;;;;;;;;;;5071234;28;20461;-76
2022/05/06 14:18:58;;;;;;;8.77;5.80;;;;;;;;;;5070912;28;20490;-76
2022/05/06 14:21:25;;;;;;;5.70;5.30;;;;;;;;;;5070959;28;20477;-77
2022/05/06 14:23:54;;;;;;;5.90;5.40;;;;;;;;;;5070690;28;20952;-76
2022/05/06 14:26:21;;;;;;;7.60;5.70;;;;;;;;;;5070648;28;20491;-76
2022/05/06 14:28:48;;;;;;;8.37;6.37;;;;;;;;;;5070990;28;20445;-75
2022/05/06 14:31:16;;;;;;;5.70;5.30;;;;;;;;;;5070412;28;20948;-77
2022/05/06 14:33:43;;;;;;;7.53;5.77;;;;;;;;;;5070388;28;20865;-76
2022/05/06 14:36:11;;;;;;;6.10;5.50;;;;;;;;;;5070753;28;20444;-76
2022/05/06 14:38:38;;;;;;;6.27;5.70;;;;;;;;;;5070450;28;20526;-76
2022/05/06 14:41:05;;;;;;;6.43;5.90;;;;;;;;;;5070486;28;20498;-77
2022/05/06 14:43:32;;;;;;;5.90;5.50;;;;;;;;;;5070569;28;20451;-77
2022/05/06 14:45:59;;;;;;;6.33;5.93;;;;;;;;;;5071138;28;20856;-77
2022/05/06 14:48:26;;;;;;;6.77;6.27;;;;;;;;;;5070456;28;20452;-75
2022/05/06 14:50:53;;;;;;;6.57;5.90;;;;;;;;;;5070701;28;20452;-75
2022/05/06 14:53:21;;;;;;;5.93;5.50;;;;;;;;;;5070343;28;20440;-76
2022/05/06 14:55:48;;;;;;;6.70;6.00;;;;;;;;;;5071336;28;20452;-76
2022/05/06 14:58:15;;;;;;;7.27;6.57;;;;;;;;;;5071034;28;21011;-77
2022/05/06 15:00:42;;;;;;;6.43;5.80;;;;;;;;;;5070847;28;20448;-76
2022/05/06 15:03:10;;;;;;;6.33;5.80;;;;;;;;;;5070357;28;20445;-76
2022/05/06 15:05:37;;;;;;;6.03;5.50;;;;;;;;;;5071220;28;20498;-76
2022/05/06 15:08:04;;;;;;;6.33;5.83;;;;;;;;;;5070765;28;20858;-75
2022/05/06 15:10:33;;;;;;;9.07;5.23;;;;;;;;;;5071202;28;20444;-75
2022/05/06 15:13:00;;;;;;;5.90;5.27;;;;;;;;;;5070672;28;20498;-75
2022/05/06 15:15:27;;;;;;;6.37;5.57;;;;;;;;;;5070800;28;20885;-75
2022/05/06 15:17:54;;;;;;;5.70;5.20;;;;;;;;;;5070580;28;20533;-76
2022/05/06 15:20:22;;;;;;;6.03;5.57;;;;;;;;;;5071288;28;20449;-76
2022/05/06 15:22:49;;;;;;;5.87;5.47;;;;;;;;;;5071340;28;20444;-76
2022/05/06 15:25:17;;;;;;;6.80;6.17;;;;;;;;;;5070596;28;20443;-75
2022/05/06 15:27:45;;;;;;;6.23;5.70;;;;;;;;;;5070648;28;20921;-76
2022/05/06 15:30:12;;;;;;;6.40;5.90;;;;;;;;;;5070472;28;21251;-76
2022/05/06 15:32:39;;;;;;;6.03;5.53;;;;;;;;;;5070114;28;21009;-75
2022/05/06 15:35:07;;;;;;;8.90;5.90;;;;;;;;;;5070324;28;20455;-76